createdAt,value
2022-08-25T00:00:12.206Z,100650.34
2022-08-25T00:02:39.237Z,100649.41
2022-08-25T00:05:08.085Z,100644.03
2022-08-25T00:07:36.901Z,100639.75
2022-08-25T00:10:07.613Z,100637.81
2022-08-25T00:12:34.602Z,100645.97
2022-08-25T00:15:01.785Z,100633.44
2022-08-25T00:17:29.015Z,100629.09
2022-08-25T00:19:55.993Z,100626.44
2022-08-25T00:22:23.258Z,100626.44
2022-08-25T00:24:50.213Z,100625.44
2022-08-25T00:27:18.151Z,100622.63
2022-08-25T00:29:45.187Z,100618.34
2022-08-25T00:32:12.818Z,100615.59
2022-08-25T00:34:40.118Z,100619.06
2022-08-25T00:37:09.530Z,100611.84
2022-08-25T00:39:37.725Z,100600.28
2022-08-25T00:42:11.725Z,100610.97
2022-08-25T00:44:44.068Z,100608.22
2022-08-25T00:47:11.449Z,100616.44
2022-08-25T00:49:59.269Z,100615.53
2022-08-25T00:52:36.051Z,100615.59
2022-08-25T00:55:15.873Z,100613.81
2022-08-25T00:58:11.631Z,100610.31
2022-08-25T01:00:47.190Z,100607.69
2022-08-25T01:03:14.741Z,100602.25
2022-08-25T01:05:43.495Z,100602.25
2022-08-25T01:08:10.885Z,100603.19
2022-08-25T01:10:42.664Z,100605.94
2022-08-25T01:13:20.766Z,100610.41
2022-08-25T01:15:50.057Z,100607.66
2022-08-25T01:18:17.095Z,100611.97
2022-08-25T01:20:44.208Z,100600.28
2022-08-25T01:23:11.190Z,100611.03
2022-08-25T01:26:18.710Z,100608.41
2022-08-25T01:29:08.798Z,100606.59
2022-08-25T01:31:38.185Z,100604.06
2022-08-25T01:34:07.360Z,100606.66
2022-08-25T01:36:35.741Z,100609.28
2022-08-25T01:39:04.395Z,100602.06
2022-08-25T01:42:13.322Z,100600.22
2022-08-25T01:44:45.107Z,100600.25
2022-08-25T01:47:13.831Z,100593.88
2022-08-25T01:49:41.188Z,100596.66
2022-08-25T01:52:17.062Z,100606.44
2022-08-25T01:54:44.284Z,100600.19
2022-08-25T01:57:11.381Z,100593.06
2022-08-25T01:59:38.670Z,100600.25
2022-08-25T02:02:06.730Z,100600.34
2022-08-25T02:04:34.862Z,100608.41
2022-08-25T02:07:06.344Z,100600.34
2022-08-25T02:09:34.623Z,100591.47
2022-08-25T02:12:01.610Z,100589.56
2022-08-25T02:14:28.684Z,100591.28
2022-08-25T02:16:57.164Z,100587.81
2022-08-25T02:19:26.060Z,100578.00
2022-08-25T02:21:54.018Z,100581.53
2022-08-25T02:24:21.369Z,100584.00
2022-08-25T02:26:48.634Z,100587.69
2022-08-25T02:29:16.942Z,100589.66
2022-08-25T02:31:44.846Z,100577.16
2022-08-25T02:34:12.576Z,100576.28
2022-08-25T02:36:40.193Z,100582.47
2022-08-25T02:39:09.564Z,100583.25
2022-08-25T02:41:37.184Z,100590.44
2022-08-25T02:44:05.943Z,100581.56
2022-08-25T02:46:34.373Z,100588.78
2022-08-25T02:49:01.666Z,100573.56
2022-08-25T02:51:30.291Z,100571.66
2022-08-25T02:54:02.174Z,100569.88
2022-08-25T02:56:31.531Z,100591.41
2022-08-25T02:58:59.863Z,100579.88
2022-08-25T03:01:29.267Z,100584.25
2022-08-25T03:03:57.231Z,100581.50
2022-08-25T03:06:24.992Z,100576.19
2022-08-25T03:08:53.293Z,100571.78
2022-08-25T03:11:21.198Z,100581.59
2022-08-25T03:13:51.088Z,100590.56
2022-08-25T03:16:19.728Z,100588.53
2022-08-25T03:18:48.853Z,100595.56
2022-08-25T03:21:16.878Z,100593.66
2022-08-25T03:23:45.714Z,100586.66
2022-08-25T03:26:31.656Z,100584.97
2022-08-25T03:28:58.934Z,100582.31
2022-08-25T03:31:27.785Z,100578.03
2022-08-25T03:33:55.662Z,100583.72
2022-08-25T03:36:23.015Z,100588.13
2022-08-25T03:38:50.040Z,100586.31
2022-08-25T03:41:27.019Z,100588.06
2022-08-25T03:43:56.720Z,100574.78
2022-08-25T03:46:34.412Z,100589.84
2022-08-25T03:49:05.186Z,100589.03
2022-08-25T03:51:47.499Z,100586.34
2022-08-25T03:54:23.160Z,100586.28
2022-08-25T03:56:50.176Z,100575.69
2022-08-25T03:59:18.680Z,100578.31
2022-08-25T04:01:50.220Z,100586.41
2022-08-25T04:04:20.475Z,100578.50
2022-08-25T04:06:47.513Z,100572.47
2022-08-25T04:09:14.574Z,100584.81
2022-08-25T04:11:42.580Z,100584.81
2022-08-25T04:14:09.928Z,100593.97
2022-08-25T04:16:43.299Z,100585.88
2022-08-25T04:19:12.582Z,100585.88
2022-08-25T04:21:41.530Z,100587.66
2022-08-25T04:24:11.754Z,100587.50
2022-08-25T04:26:49.785Z,100580.63
2022-08-25T04:29:23.680Z,100581.38
2022-08-25T04:31:52.157Z,100578.72
2022-08-25T04:34:31.074Z,100571.47
2022-08-25T04:37:01.762Z,100579.47
2022-08-25T04:39:29.331Z,100579.41
2022-08-25T04:41:56.309Z,100578.59
2022-08-25T04:44:23.316Z,100585.50
2022-08-25T04:46:50.460Z,100572.03
2022-08-25T04:49:17.604Z,100580.91
2022-08-25T04:51:45.938Z,100576.25
2022-08-25T04:54:21.824Z,100573.47
2022-08-25T04:56:54.221Z,100571.69
2022-08-25T04:59:21.788Z,100576.78
2022-08-25T05:01:50.949Z,100567.69
2022-08-25T05:04:28.105Z,100572.09
2022-08-25T05:06:56.764Z,100559.44
2022-08-25T05:09:25.195Z,100563.59
2022-08-25T05:11:53.776Z,100563.97
2022-08-25T05:14:25.731Z,100581.06
2022-08-25T05:16:58.050Z,100571.66
2022-08-25T05:19:26.489Z,100584.13
2022-08-25T05:21:54.306Z,100590.94
2022-08-25T05:24:22.340Z,100578.13
2022-08-25T05:26:49.894Z,100584.13
2022-08-25T05:29:17.552Z,100586.28
2022-08-25T05:31:50.109Z,100567.78
2022-08-25T05:34:19.608Z,100573.91
2022-08-25T05:36:48.212Z,100569.06
2022-08-25T05:39:15.463Z,100563.19
2022-08-25T05:41:42.579Z,100565.72
2022-08-25T05:44:09.719Z,100558.50
2022-08-25T05:46:36.873Z,100561.72
2022-08-25T05:49:03.970Z,100565.38
2022-08-25T05:51:31.010Z,100572.03
2022-08-25T05:53:57.951Z,100570.31
2022-08-25T05:56:25.003Z,100565.03
2022-08-25T05:58:51.963Z,100563.63
2022-08-25T06:01:43.536Z,100564.28
2022-08-25T06:04:13.928Z,100565.88
2022-08-25T06:06:42.180Z,100562.00
2022-08-25T06:09:10.268Z,100561.09
2022-08-25T06:11:40.083Z,100555.78
2022-08-25T06:14:09.352Z,100561.69
2022-08-25T06:16:36.773Z,100565.00
2022-08-25T06:19:04.398Z,100572.94
2022-08-25T06:21:31.432Z,100559.66
2022-08-25T06:23:58.684Z,100569.59
2022-08-25T06:26:26.933Z,100570.78
2022-08-25T06:28:54.062Z,100572.84
2022-08-25T06:31:22.480Z,100559.66
2022-08-25T06:33:50.793Z,100567.16
2022-08-25T06:36:19.243Z,100575.53
2022-08-25T06:38:47.529Z,100565.81
2022-08-25T06:41:16.484Z,100574.44
2022-08-25T06:43:48.888Z,100568.69
2022-08-25T06:46:31.722Z,100569.41
2022-08-25T06:49:03.841Z,100566.00
2022-08-25T06:51:30.937Z,100561.28
2022-08-25T06:53:58.078Z,100572.47
2022-08-25T06:56:25.065Z,100569.25
2022-08-25T06:58:53.855Z,100571.91
2022-08-25T07:01:27.015Z,100575.81
2022-08-25T07:03:59.963Z,100579.72
2022-08-25T07:06:32.790Z,100568.47
2022-08-25T07:09:00.385Z,100581.66
2022-08-25T07:11:28.437Z,100585.53
2022-08-25T07:13:55.838Z,100583.16
2022-08-25T07:16:27.984Z,100587.47
2022-08-25T07:19:00.512Z,100580.75
2022-08-25T07:21:33.361Z,100580.75
2022-08-25T07:24:07.359Z,100591.78
2022-08-25T07:26:38.312Z,100579.75
2022-08-25T07:29:32.796Z,100579.34
2022-08-25T07:32:05.159Z,100592.94
2022-08-25T07:34:52.135Z,100585.44
2022-08-25T07:40:14.609Z,100581.19
2022-08-25T07:42:42.577Z,100591.25
2022-08-25T07:45:11.069Z,100585.59
2022-08-25T07:47:39.536Z,100585.22
2022-08-25T07:50:10.228Z,100586.66
2022-08-25T07:52:38.872Z,100587.88
2022-08-25T07:55:10.913Z,100597.84
2022-08-25T07:57:41.300Z,100590.19
2022-08-25T08:00:11.080Z,100594.38
2022-08-25T08:02:42.528Z,100589.53
2022-08-25T08:05:12.166Z,100589.41
2022-08-25T08:07:43.155Z,100593.59
2022-08-25T08:13:01.935Z,100594.72
2022-08-25T08:15:29.763Z,100602.06
2022-08-25T08:18:00.349Z,100596.72
2022-08-25T08:20:29.051Z,100595.22
2022-08-25T08:22:56.263Z,100595.63
2022-08-25T08:25:26.660Z,100590.59
2022-08-25T08:27:56.273Z,100590.72
2022-08-25T08:30:26.236Z,100592.59
2022-08-25T08:33:12.002Z,100595.50
2022-08-25T08:35:41.440Z,100594.97
2022-08-25T08:38:14.531Z,100583.03
2022-08-25T08:41:26.681Z,100590.56
2022-08-25T08:47:11.960Z,100597.53
2022-08-25T08:50:12.128Z,100588.22
2022-08-25T08:53:09.550Z,100582.81
2022-08-25T08:56:04.478Z,100577.13
2022-08-25T08:58:57.247Z,100576.97
2022-08-25T09:01:56.629Z,100581.28
2022-08-25T09:04:35.334Z,100584.59
2022-08-25T09:07:11.772Z,100575.69
2022-08-25T09:09:42.096Z,100576.97
2022-08-25T09:12:48.037Z,100571.03
2022-08-25T09:16:07.969Z,100571.63
2022-08-25T09:18:51.523Z,100569.69
2022-08-25T09:22:35.201Z,100566.00
2022-08-25T09:25:12.363Z,100567.13
2022-08-25T09:28:08.462Z,100572.47
2022-08-25T09:30:50.702Z,100566.94
2022-08-25T09:33:22.306Z,100576.81
2022-08-25T09:35:53.704Z,100561.41
2022-08-25T09:38:21.752Z,100568.31
2022-08-25T09:40:54.755Z,100564.16
2022-08-25T09:43:44.579Z,100562.66
2022-08-25T09:46:14.640Z,100557.91
2022-08-25T09:48:56.444Z,100557.50
2022-08-25T09:51:38.159Z,100549.22
2022-08-25T09:54:12.991Z,100551.75
2022-08-25T09:56:53.299Z,100552.00
2022-08-25T09:59:36.108Z,100545.44
2022-08-25T10:02:28.679Z,100541.84
2022-08-25T10:04:56.540Z,100540.19
2022-08-25T10:07:37.314Z,100532.59
2022-08-25T10:10:18.355Z,100528.56
2022-08-25T10:12:51.236Z,100522.31
2022-08-25T10:15:29.920Z,100531.69
2022-08-25T10:18:26.847Z,100525.66
2022-08-25T10:21:14.690Z,100511.94
2022-08-25T10:23:55.961Z,100516.59
2022-08-25T10:26:48.930Z,100517.28
2022-08-25T10:29:40.816Z,100505.22
2022-08-25T10:32:26.078Z,100503.78
2022-08-25T10:34:59.372Z,100495.81
2022-08-25T10:38:21.665Z,100503.72
2022-08-25T10:41:08.372Z,100490.31
2022-08-25T10:44:34.782Z,100485.69
2022-08-25T10:47:40.238Z,100472.28
2022-08-25T10:50:29.528Z,100472.25
2022-08-25T10:53:36.933Z,100468.31
2022-08-25T10:56:21.451Z,100471.16
2022-08-25T10:59:24.989Z,100480.28
2022-08-25T11:02:07.142Z,100481.97
2022-08-25T11:05:06.830Z,100463.28
2022-08-25T11:07:41.189Z,100459.31
2022-08-25T11:10:15.230Z,100459.09
2022-08-25T11:13:03.933Z,100450.00
2022-08-25T11:16:16.518Z,100452.84
2022-08-25T11:18:57.652Z,100441.75
2022-08-25T11:21:52.888Z,100445.19
2022-08-25T11:25:10.060Z,100450.94
2022-08-25T11:27:53.454Z,100448.72
2022-08-25T11:30:21.106Z,100447.19
2022-08-25T11:32:52.160Z,100432.75
2022-08-25T11:35:42.496Z,100439.53
2022-08-25T11:38:39.641Z,100447.97
2022-08-25T11:41:28.451Z,100437.00
2022-08-25T11:44:38.237Z,100442.19
2022-08-25T11:48:12.973Z,100435.66
2022-08-25T11:51:27.519Z,100433.97
2022-08-25T11:54:42.487Z,100432.56
2022-08-25T11:57:16.875Z,100424.69
2022-08-25T11:59:57.386Z,100432.91
2022-08-25T12:02:47.604Z,100433.91
2022-08-25T12:05:17.448Z,100433.38
2022-08-25T12:07:47.886Z,100447.78
2022-08-25T12:10:24.592Z,100437.53
2022-08-25T12:13:25.158Z,100448.19
2022-08-25T12:15:52.016Z,100434.09
2022-08-25T12:18:22.879Z,100444.97
2022-08-25T12:20:56.352Z,100439.28
2022-08-25T12:23:33.128Z,100446.72
2022-08-25T12:26:27.565Z,100439.97
2022-08-25T12:28:57.553Z,100420.91
2022-08-25T12:31:45.188Z,100428.63
2022-08-25T12:34:43.698Z,100421.06
2022-08-25T12:37:21.210Z,100420.94
2022-08-25T12:39:51.256Z,100426.19
2022-08-25T12:42:43.959Z,100423.13
2022-08-25T12:45:14.237Z,100413.16
2022-08-25T12:47:47.426Z,100422.13
2022-08-25T12:50:43.589Z,100407.56
2022-08-25T12:53:23.007Z,100424.78
2022-08-25T12:56:01.470Z,100412.81
2022-08-25T12:59:14.413Z,100405.06
2022-08-25T13:02:07.159Z,100416.00
2022-08-25T13:04:43.930Z,100410.72
2022-08-25T13:07:48.231Z,100395.28
2022-08-25T13:10:24.288Z,100397.91
2022-08-25T13:13:06.133Z,100409.84
2022-08-25T13:15:48.684Z,100398.31
2022-08-25T13:18:33.630Z,100397.19
2022-08-25T13:21:38.936Z,100403.75
2022-08-25T13:24:32.081Z,100413.91
2022-08-25T13:27:22.653Z,100390.66
2022-08-25T13:29:58.216Z,100389.06
2022-08-25T13:32:32.277Z,100410.25
2022-08-25T13:35:39.694Z,100398.38
2022-08-25T13:38:18.955Z,100402.50
2022-08-25T13:40:46.080Z,100406.00
2022-08-25T13:43:15.018Z,100388.72
2022-08-25T13:45:48.298Z,100398.28
2022-08-25T13:48:37.981Z,100402.38
2022-08-25T13:51:31.439Z,100398.97
2022-08-25T13:54:06.363Z,100397.53
2022-08-25T13:56:41.632Z,100391.78
2022-08-25T13:59:26.881Z,100384.59
2022-08-25T14:01:55.756Z,100385.47
2022-08-25T14:04:51.645Z,100394.47
2022-08-25T14:07:22.518Z,100370.13
2022-08-25T14:10:00.872Z,100387.41
2022-08-25T14:12:45.500Z,100377.78
2022-08-25T14:15:18.156Z,100371.91
2022-08-25T14:18:00.857Z,100380.19
2022-08-25T14:20:31.190Z,100374.66
2022-08-25T14:23:04.219Z,100381.88
2022-08-25T14:25:35.273Z,100363.81
2022-08-25T14:28:07.365Z,100372.59
2022-08-25T14:30:39.877Z,100362.09
2022-08-25T14:33:12.347Z,100370.13
2022-08-25T14:35:41.010Z,100365.13
2022-08-25T14:38:11.479Z,100374.78
2022-08-25T14:40:39.818Z,100364.56
2022-08-25T14:43:09.654Z,100357.03
2022-08-25T14:45:43.622Z,100369.16
2022-08-25T14:48:44.613Z,100372.06
2022-08-25T14:51:14.402Z,100361.41
2022-08-25T14:53:43.696Z,100361.03
2022-08-25T14:56:10.991Z,100355.69
2022-08-25T14:58:51.260Z,100359.13
2022-08-25T15:01:28.919Z,100364.88
2022-08-25T15:04:15.492Z,100358.25
2022-08-25T15:06:43.781Z,100373.59
2022-08-25T15:09:16.545Z,100372.53
2022-08-25T15:11:48.313Z,100365.78
2022-08-25T15:14:29.222Z,100363.31
2022-08-25T15:17:02.290Z,100363.31
2022-08-25T15:19:29.587Z,100379.53
2022-08-25T15:21:58.021Z,100353.28
2022-08-25T15:24:28.237Z,100378.84
2022-08-25T15:26:59.991Z,100363.69
2022-08-25T15:29:30.617Z,100367.28
2022-08-25T15:31:59.787Z,100360.84
2022-08-25T15:34:27.366Z,100366.03
2022-08-25T15:36:59.881Z,100368.09
2022-08-25T15:39:27.940Z,100371.78
2022-08-25T15:41:57.230Z,100361.59
2022-08-25T15:44:29.028Z,100365.06
2022-08-25T15:46:56.491Z,100347.34
2022-08-25T15:49:24.204Z,100362.06
2022-08-25T15:51:55.288Z,100352.44
2022-08-25T15:54:27.049Z,100362.66
2022-08-25T15:56:56.725Z,100360.94
2022-08-25T15:59:25.922Z,100356.44
2022-08-25T16:01:54.879Z,100347.38
2022-08-25T16:04:25.152Z,100356.06
2022-08-25T16:06:54.247Z,100355.63
2022-08-25T16:09:23.616Z,100344.38
2022-08-25T16:11:56.735Z,100362.94
2022-08-25T16:14:26.171Z,100366.13
2022-08-25T16:16:58.531Z,100357.53
2022-08-25T16:19:28.940Z,100365.03
2022-08-25T16:21:56.568Z,100362.75
2022-08-25T16:24:23.805Z,100349.34
2022-08-25T16:26:51.922Z,100344.28
2022-08-25T16:29:20.108Z,100346.88
2022-08-25T16:31:53.441Z,100346.13
2022-08-25T16:34:24.588Z,100354.03
2022-08-25T16:36:55.540Z,100351.16
2022-08-25T16:39:23.899Z,100344.50
2022-08-25T16:41:52.271Z,100351.31
2022-08-25T16:44:22.381Z,100354.53
2022-08-25T16:46:54.218Z,100360.94
2022-08-25T16:49:21.895Z,100365.66
2022-08-25T16:51:57.727Z,100362.84
2022-08-25T16:54:44.873Z,100366.53
2022-08-25T16:57:12.390Z,100352.28
2022-08-25T16:59:39.621Z,100355.38
2022-08-25T17:02:06.733Z,100372.16
2022-08-25T17:04:33.889Z,100368.19
2022-08-25T17:07:01.726Z,100367.91
2022-08-25T17:09:29.763Z,100367.41
2022-08-25T17:11:57.321Z,100375.47
2022-08-25T17:14:25.058Z,100369.56
2022-08-25T17:16:55.127Z,100368.97
2022-08-25T17:19:25.833Z,100365.72
2022-08-25T17:21:54.905Z,100367.28
2022-08-25T17:24:22.540Z,100362.94
2022-08-25T17:26:56.886Z,100368.69
2022-08-25T17:29:23.852Z,100355.31
2022-08-25T17:31:51.659Z,100361.50
2022-08-25T17:34:23.210Z,100367.31
2022-08-25T17:36:51.751Z,100370.94
2022-08-25T17:39:22.220Z,100373.72
2022-08-25T17:41:50.635Z,100358.34
2022-08-25T17:44:18.915Z,100371.31
2022-08-25T17:46:47.465Z,100371.88
2022-08-25T17:49:16.219Z,100384.38
2022-08-25T17:51:43.358Z,100380.41
2022-08-25T17:54:12.332Z,100379.50
2022-08-25T17:56:39.631Z,100390.16
2022-08-25T17:59:07.681Z,100393.91
2022-08-25T18:01:40.556Z,100387.00
2022-08-25T18:04:17.254Z,100391.06
2022-08-25T18:06:45.988Z,100392.13
2022-08-25T18:09:13.857Z,100393.22
2022-08-25T18:11:41.313Z,100397.28
2022-08-25T18:14:11.494Z,100388.66
2022-08-25T18:16:38.955Z,100384.56
2022-08-25T18:19:09.643Z,100395.84
2022-08-25T18:21:37.527Z,100394.41
2022-08-25T18:24:06.077Z,100390.72
2022-08-25T18:26:33.218Z,100387.28
2022-08-25T18:29:00.380Z,100394.09
2022-08-25T18:31:27.835Z,100389.44
2022-08-25T18:33:54.923Z,100384.00
2022-08-25T18:36:21.959Z,100386.59
2022-08-25T18:39:08.599Z,100394.56
2022-08-25T18:41:40.109Z,100406.63
2022-08-25T18:44:07.782Z,100406.78
2022-08-25T18:46:35.565Z,100400.25
2022-08-25T18:49:03.001Z,100403.53
2022-08-25T18:51:32.800Z,100404.56
2022-08-25T18:54:01.226Z,100408.34
2022-08-25T18:56:29.189Z,100414.28
2022-08-25T18:58:57.157Z,100414.75
2022-08-25T19:01:24.470Z,100408.97
2022-08-25T19:03:51.828Z,100403.59
2022-08-25T19:06:20.749Z,100400.94
2022-08-25T19:08:48.508Z,100405.09
2022-08-25T19:11:17.278Z,100390.25
2022-08-25T19:13:49.373Z,100410.75
2022-08-25T19:16:38.199Z,100397.09
2022-08-25T19:19:07.678Z,100405.50
2022-08-25T19:21:35.949Z,100400.69
2022-08-25T19:24:03.408Z,100409.97
2022-08-25T19:26:31.563Z,100398.50
2022-08-25T19:28:58.652Z,100404.00
2022-08-25T19:31:27.588Z,100406.00
2022-08-25T19:34:00.755Z,100402.56
2022-08-25T19:36:30.220Z,100398.81
2022-08-25T19:39:00.762Z,100395.75
2022-08-25T19:41:31.171Z,100384.34
2022-08-25T19:43:59.476Z,100387.22
2022-08-25T19:46:35.753Z,100387.81
2022-08-25T19:49:18.649Z,100383.97
2022-08-25T19:51:51.511Z,100377.22
2022-08-25T19:54:29.237Z,100387.47
2022-08-25T19:56:57.395Z,100387.47
2022-08-25T19:59:40.783Z,100395.19
2022-08-25T20:02:15.872Z,100396.22
2022-08-25T20:04:49.130Z,100394.84
2022-08-25T20:07:20.265Z,100399.72
2022-08-25T20:09:47.613Z,100390.72
2022-08-25T20:14:49.393Z,100403.34
2022-08-25T20:17:24.560Z,100394.63
2022-08-25T20:20:02.375Z,100401.59
2022-08-25T20:22:34.281Z,100398.28
2022-08-25T20:25:18.763Z,100376.28
2022-08-25T20:27:53.682Z,100390.44
2022-08-25T20:30:28.156Z,100395.28
2022-08-25T20:33:00.712Z,100403.78
2022-08-25T20:35:29.045Z,100387.22
2022-08-25T20:37:58.331Z,100393.81
2022-08-25T20:40:29.006Z,100377.03
2022-08-25T20:42:58.947Z,100391.53
2022-08-25T20:45:26.136Z,100403.63
2022-08-25T20:47:53.104Z,100400.28
2022-08-25T20:50:23.539Z,100401.25
2022-08-25T20:52:54.214Z,100400.16
2022-08-25T20:55:21.840Z,100402.81
2022-08-25T20:57:49.575Z,100395.13
2022-08-25T21:00:17.573Z,100397.03
2022-08-25T21:02:46.409Z,100396.53
2022-08-25T21:05:13.783Z,100392.13
2022-08-25T21:07:41.672Z,100388.25
2022-08-25T21:10:14.101Z,100386.16
2022-08-25T21:12:42.439Z,100393.47
2022-08-25T21:15:10.876Z,100401.44
2022-08-25T21:17:38.237Z,100399.88
2022-08-25T21:20:08.577Z,100385.59
2022-08-25T21:22:37.899Z,100392.16
2022-08-25T21:25:05.612Z,100401.72
2022-08-25T21:27:33.855Z,100391.97
2022-08-25T21:30:01.154Z,100392.84
2022-08-25T21:32:28.199Z,100391.16
2022-08-25T21:34:56.255Z,100379.81
2022-08-25T21:37:25.190Z,100387.03
2022-08-25T21:39:53.035Z,100391.16
2022-08-25T21:42:22.575Z,100400.69
2022-08-25T21:44:50.604Z,100397.72
2022-08-25T21:47:20.992Z,100400.66
2022-08-25T21:49:49.782Z,100402.19
2022-08-25T21:52:17.793Z,100399.03
2022-08-25T21:54:45.214Z,100395.28
2022-08-25T21:57:12.439Z,100396.13
2022-08-25T21:59:41.386Z,100391.22
2022-08-25T22:02:14.122Z,100394.16
2022-08-25T22:04:42.888Z,100384.41
2022-08-25T22:07:11.082Z,100387.63
2022-08-25T22:09:39.377Z,100381.69
2022-08-25T22:12:07.023Z,100392.63
2022-08-25T22:14:35.957Z,100391.16
2022-08-25T22:17:03.538Z,100377.94
2022-08-25T22:19:30.673Z,100384.88
2022-08-25T22:22:01.534Z,100383.28
2022-08-25T22:24:28.837Z,100380.88
2022-08-25T22:26:56.417Z,100369.09
2022-08-25T22:29:25.906Z,100367.63
2022-08-25T22:32:02.231Z,100359.09
2022-08-25T22:34:34.427Z,100370.84
2022-08-25T22:37:04.370Z,100358.88
2022-08-25T22:39:34.315Z,100357.03
2022-08-25T22:42:02.945Z,100364.50
2022-08-25T22:44:30.480Z,100359.34
2022-08-25T22:46:57.615Z,100357.44
2022-08-25T22:49:29.296Z,100360.88
2022-08-25T22:51:57.209Z,100361.84
2022-08-25T22:54:25.460Z,100360.03
2022-08-25T22:56:53.331Z,100362.97
2022-08-25T22:59:20.653Z,100359.44
2022-08-25T23:01:50.054Z,100350.75
2022-08-25T23:04:17.701Z,100339.47
2022-08-25T23:06:47.183Z,100358.03
2022-08-25T23:09:14.396Z,100342.81
2022-08-25T23:11:42.772Z,100341.97
2022-08-25T23:14:11.210Z,100347.47
2022-08-25T23:16:43.520Z,100340.69
2022-08-25T23:19:13.834Z,100340.31
2022-08-25T23:22:01.011Z,100354.28
2022-08-25T23:24:30.770Z,100346.03
2022-08-25T23:27:00.925Z,100354.63
2022-08-25T23:29:29.378Z,100329.59
2022-08-25T23:31:58.248Z,100349.63
2022-08-25T23:34:26.962Z,100340.09
2022-08-25T23:36:55.955Z,100344.59
2022-08-25T23:39:23.515Z,100351.28
2022-08-25T23:41:52.328Z,100351.19
2022-08-25T23:44:21.553Z,100354.94
2022-08-25T23:46:49.670Z,100349.75
2022-08-25T23:49:20.115Z,100348.03
2022-08-25T23:51:52.773Z,100350.03
2022-08-25T23:54:21.388Z,100343.91
2022-08-25T23:56:51.413Z,100343.88
2022-08-25T23:59:24.148Z,100319.00
